sensor_id;sensor_type;location;lat;lon;timestamp;P1;durP1;ratioP1;P2;durP2;ratioP2
47353;SDS011;50657;48.830;2.282;2023-02-22T00:00:33;3.75;;;2.15;;
47353;SDS011;50657;48.830;2.282;2023-02-22T00:03:08;3.92;;;1.92;;
47353;SDS011;50657;48.830;2.282;2023-02-22T00:05:36;3.83;;;2.30;;
47353;SDS011;50657;48.830;2.282;2023-02-22T00:08:06;3.05;;;2.33;;
47353;SDS011;50657;48.830;2.282;2023-02-22T00:10:34;2.38;;;1.83;;
47353;SDS011;50657;48.830;2.282;2023-02-22T00:13:04;2.90;;;1.63;;
47353;SDS011;50657;48.830;2.282;2023-02-22T00:15:33;2.85;;;2.05;;
47353;SDS011;50657;48.830;2.282;2023-02-22T00:18:00;1.95;;;1.45;;
47353;SDS011;50657;48.830;2.282;2023-02-22T00:20:29;2.05;;;1.95;;
47353;SDS011;50657;48.830;2.282;2023-02-22T00:22:56;2.95;;;2.35;;
47353;SDS011;50657;48.830;2.282;2023-02-22T00:25:27;1.85;;;1.17;;
47353;SDS011;50657;48.830;2.282;2023-02-22T00:27:54;2.20;;;1.88;;
47353;SDS011;50657;48.830;2.282;2023-02-22T00:30:21;2.17;;;1.48;;
47353;SDS011;50657;48.830;2.282;2023-02-22T00:32:52;2.13;;;1.85;;
47353;SDS011;50657;48.830;2.282;2023-02-22T00:35:20;3.20;;;1.83;;
47353;SDS011;50657;48.830;2.282;2023-02-22T00:37:51;2.92;;;1.27;;
47353;SDS011;50657;48.830;2.282;2023-02-22T00:40:20;1.33;;;1.23;;
47353;SDS011;50657;48.830;2.282;2023-02-22T00:42:50;1.90;;;1.30;;
47353;SDS011;50657;48.830;2.282;2023-02-22T00:45:18;4.90;;;1.60;;
47353;SDS011;50657;48.830;2.282;2023-02-22T00:47:46;1.63;;;1.30;;
47353;SDS011;50657;48.830;2.282;2023-02-22T00:50:14;1.77;;;1.67;;
47353;SDS011;50657;48.830;2.282;2023-02-22T00:52:41;3.83;;;2.05;;
47353;SDS011;50657;48.830;2.282;2023-02-22T00:55:09;3.70;;;1.85;;
47353;SDS011;50657;48.830;2.282;2023-02-22T00:57:41;3.15;;;2.08;;
47353;SDS011;50657;48.830;2.282;2023-02-22T01:00:13;4.80;;;2.47;;
47353;SDS011;50657;48.830;2.282;2023-02-22T01:02:43;3.33;;;1.77;;
47353;SDS011;50657;48.830;2.282;2023-02-22T01:05:12;2.33;;;1.35;;
47353;SDS011;50657;48.830;2.282;2023-02-22T01:07:40;7.90;;;1.60;;
47353;SDS011;50657;48.830;2.282;2023-02-22T01:10:08;2.88;;;2.08;;
47353;SDS011;50657;48.830;2.282;2023-02-22T01:12:36;1.83;;;1.38;;
47353;SDS011;50657;48.830;2.282;2023-02-22T01:15:05;1.88;;;1.70;;
47353;SDS011;50657;48.830;2.282;2023-02-22T01:17:37;3.90;;;2.55;;
47353;SDS011;50657;48.830;2.282;2023-02-22T01:20:07;2.13;;;1.08;;
47353;SDS011;50657;48.830;2.282;2023-02-22T01:22:37;3.78;;;1.80;;
47353;SDS011;50657;48.830;2.282;2023-02-22T01:25:04;2.08;;;1.65;;
47353;SDS011;50657;48.830;2.282;2023-02-22T01:27:32;1.77;;;1.60;;
47353;SDS011;50657;48.830;2.282;2023-02-22T01:29:59;2.63;;;1.45;;
47353;SDS011;50657;48.830;2.282;2023-02-22T01:32:33;9.23;;;1.80;;
47353;SDS011;50657;48.830;2.282;2023-02-22T01:35:02;2.25;;;2.08;;
47353;SDS011;50657;48.830;2.282;2023-02-22T01:37:32;1.88;;;1.50;;
47353;SDS011;50657;48.830;2.282;2023-02-22T01:40:00;1.88;;;1.77;;
47353;SDS011;50657;48.830;2.282;2023-02-22T01:42:27;2.90;;;1.60;;
47353;SDS011;50657;48.830;2.282;2023-02-22T01:48:00;2.17;;;1.67;;
47353;SDS011;50657;48.830;2.282;2023-02-22T01:50:32;3.85;;;2.38;;
47353;SDS011;50657;48.830;2.282;2023-02-22T01:53:02;2.05;;;1.95;;
47353;SDS011;50657;48.830;2.282;2023-02-22T01:55:32;2.50;;;1.95;;
47353;SDS011;50657;48.830;2.282;2023-02-22T01:58:00;1.60;;;1.50;;
47353;SDS011;50657;48.830;2.282;2023-02-22T02:00:28;3.35;;;1.55;;
47353;SDS011;50657;48.830;2.282;2023-02-22T02:02:57;1.20;;;1.08;;
47353;SDS011;50657;48.830;2.282;2023-02-22T02:05:38;1.83;;;1.73;;
47353;SDS011;50657;48.830;2.282;2023-02-22T02:08:09;1.42;;;1.27;;
47353;SDS011;50657;48.830;2.282;2023-02-22T02:10:42;9.93;;;2.15;;
47353;SDS011;50657;48.830;2.282;2023-02-22T02:13:09;2.20;;;1.70;;
47353;SDS011;50657;48.830;2.282;2023-02-22T02:15:37;2.70;;;1.05;;
47353;SDS011;50657;48.830;2.282;2023-02-22T02:18:06;2.67;;;1.13;;
47353;SDS011;50657;48.830;2.282;2023-02-22T02:20:40;2.33;;;2.10;;
47353;SDS011;50657;48.830;2.282;2023-02-22T02:23:16;3.40;;;1.97;;
47353;SDS011;50657;48.830;2.282;2023-02-22T02:26:14;4.53;;;1.40;;
47353;SDS011;50657;48.830;2.282;2023-02-22T02:32:22;1.95;;;1.85;;
47353;SDS011;50657;48.830;2.282;2023-02-22T02:35:03;2.28;;;2.08;;
47353;SDS011;50657;48.830;2.282;2023-02-22T02:37:41;6.35;;;1.70;;
47353;SDS011;50657;48.830;2.282;2023-02-22T02:40:16;2.83;;;2.17;;
47353;SDS011;50657;48.830;2.282;2023-02-22T02:42:50;5.07;;;1.70;;
47353;SDS011;50657;48.830;2.282;2023-02-22T02:45:25;3.60;;;2.10;;
47353;SDS011;50657;48.830;2.282;2023-02-22T02:47:59;1.70;;;1.50;;
47353;SDS011;50657;48.830;2.282;2023-02-22T02:50:30;1.50;;;1.40;;
47353;SDS011;50657;48.830;2.282;2023-02-22T02:53:01;2.00;;;1.35;;
47353;SDS011;50657;48.830;2.282;2023-02-22T02:55:32;3.50;;;2.50;;
47353;SDS011;50657;48.830;2.282;2023-02-22T02:58:01;1.65;;;1.55;;
47353;SDS011;50657;48.830;2.282;2023-02-22T03:00:30;4.22;;;2.22;;
47353;SDS011;50657;48.830;2.282;2023-02-22T03:03:14;4.22;;;1.95;;
47353;SDS011;50657;48.830;2.282;2023-02-22T03:06:00;2.22;;;1.50;;
47353;SDS011;50657;48.830;2.282;2023-02-22T03:08:48;3.15;;;2.60;;
47353;SDS011;50657;48.830;2.282;2023-02-22T03:11:23;3.13;;;1.88;;
47353;SDS011;50657;48.830;2.282;2023-02-22T03:13:59;2.53;;;1.88;;
47353;SDS011;50657;48.830;2.282;2023-02-22T03:16:37;2.80;;;1.13;;
47353;SDS011;50657;48.830;2.282;2023-02-22T03:19:13;4.25;;;2.08;;
47353;SDS011;50657;48.830;2.282;2023-02-22T03:21:49;3.60;;;2.63;;
47353;SDS011;50657;48.830;2.282;2023-02-22T03:24:24;1.60;;;1.50;;
47353;SDS011;50657;48.830;2.282;2023-02-22T03:26:57;4.25;;;2.85;;
47353;SDS011;50657;48.830;2.282;2023-02-22T03:29:31;1.50;;;1.40;;
47353;SDS011;50657;48.830;2.282;2023-02-22T03:32:04;4.28;;;2.80;;
47353;SDS011;50657;48.830;2.282;2023-02-22T03:34:39;2.05;;;1.70;;
47353;SDS011;50657;48.830;2.282;2023-02-22T03:37:13;1.65;;;1.63;;
47353;SDS011;50657;48.830;2.282;2023-02-22T03:39:44;1.75;;;1.65;;
47353;SDS011;50657;48.830;2.282;2023-02-22T03:42:16;4.60;;;1.73;;
47353;SDS011;50657;48.830;2.282;2023-02-22T03:44:47;3.10;;;1.92;;
47353;SDS011;50657;48.830;2.282;2023-02-22T03:47:17;1.90;;;1.80;;
47353;SDS011;50657;48.830;2.282;2023-02-22T03:49:51;5.82;;;1.45;;
47353;SDS011;50657;48.830;2.282;2023-02-22T03:52:24;2.08;;;1.98;;
47353;SDS011;50657;48.830;2.282;2023-02-22T03:54:52;3.15;;;1.75;;
47353;SDS011;50657;48.830;2.282;2023-02-22T03:57:21;1.70;;;1.60;;
47353;SDS011;50657;48.830;2.282;2023-02-22T04:00:02;2.35;;;1.15;;
47353;SDS011;50657;48.830;2.282;2023-02-22T04:02:38;2.85;;;1.83;;
47353;SDS011;50657;48.830;2.282;2023-02-22T04:05:08;2.38;;;1.23;;
47353;SDS011;50657;48.830;2.282;2023-02-22T04:07:36;3.13;;;1.33;;
47353;SDS011;50657;48.830;2.282;2023-02-22T04:10:03;2.63;;;1.38;;
47353;SDS011;50657;48.830;2.282;2023-02-22T04:12:33;1.85;;;1.25;;
47353;SDS011;50657;48.830;2.282;2023-02-22T04:15:02;1.20;;;1.10;;
47353;SDS011;50657;48.830;2.282;2023-02-22T04:17:31;1.58;;;0.68;;
47353;SDS011;50657;48.830;2.282;2023-02-22T04:19:58;1.83;;;1.02;;
47353;SDS011;50657;48.830;2.282;2023-02-22T04:22:34;2.28;;;1.17;;
47353;SDS011;50657;48.830;2.282;2023-02-22T04:25:02;6.15;;;2.47;;
47353;SDS011;50657;48.830;2.282;2023-02-22T04:27:29;1.77;;;1.17;;
47353;SDS011;50657;48.830;2.282;2023-02-22T04:29:57;1.65;;;1.48;;
47353;SDS011;50657;48.830;2.282;2023-02-22T04:32:24;3.38;;;1.48;;
47353;SDS011;50657;48.830;2.282;2023-02-22T04:34:52;4.20;;;2.67;;
47353;SDS011;50657;48.830;2.282;2023-02-22T04:37:19;2.10;;;1.88;;
47353;SDS011;50657;48.830;2.282;2023-02-22T04:39:47;3.00;;;1.50;;
47353;SDS011;50657;48.830;2.282;2023-02-22T04:42:15;2.30;;;1.45;;
47353;SDS011;50657;48.830;2.282;2023-02-22T04:44:43;2.80;;;2.65;;
47353;SDS011;50657;48.830;2.282;2023-02-22T04:47:10;3.45;;;1.98;;
47353;SDS011;50657;48.830;2.282;2023-02-22T04:49:38;1.92;;;1.23;;
47353;SDS011;50657;48.830;2.282;2023-02-22T04:52:05;2.47;;;1.45;;
47353;SDS011;50657;48.830;2.282;2023-02-22T04:54:36;5.50;;;1.52;;
47353;SDS011;50657;48.830;2.282;2023-02-22T04:57:06;2.75;;;1.73;;
47353;SDS011;50657;48.830;2.282;2023-02-22T04:59:35;2.35;;;1.45;;
47353;SDS011;50657;48.830;2.282;2023-02-22T05:02:02;1.38;;;1.27;;
47353;SDS011;50657;48.830;2.282;2023-02-22T05:04:29;1.67;;;1.35;;
47353;SDS011;50657;48.830;2.282;2023-02-22T05:06:56;1.40;;;1.35;;
47353;SDS011;50657;48.830;2.282;2023-02-22T05:09:23;3.33;;;1.45;;
47353;SDS011;50657;48.830;2.282;2023-02-22T05:11:50;3.30;;;1.10;;
47353;SDS011;50657;48.830;2.282;2023-02-22T05:14:19;1.45;;;1.08;;
47353;SDS011;50657;48.830;2.282;2023-02-22T05:16:50;1.65;;;0.98;;
47353;SDS011;50657;48.830;2.282;2023-02-22T05:19:19;1.95;;;1.65;;
47353;SDS011;50657;48.830;2.282;2023-02-22T05:21:46;1.23;;;1.13;;
47353;SDS011;50657;48.830;2.282;2023-02-22T05:24:13;3.03;;;1.83;;
47353;SDS011;50657;48.830;2.282;2023-02-22T05:26:41;1.35;;;1.00;;
47353;SDS011;50657;48.830;2.282;2023-02-22T05:29:09;1.52;;;1.30;;
47353;SDS011;50657;48.830;2.282;2023-02-22T05:31:38;1.65;;;1.55;;
47353;SDS011;50657;48.830;2.282;2023-02-22T05:34:06;2.35;;;1.48;;
47353;SDS011;50657;48.830;2.282;2023-02-22T05:36:33;1.42;;;1.33;;
47353;SDS011;50657;48.830;2.282;2023-02-22T05:39:00;2.60;;;1.27;;
47353;SDS011;50657;48.830;2.282;2023-02-22T05:41:28;0.73;;;0.73;;
47353;SDS011;50657;48.830;2.282;2023-02-22T05:43:55;1.40;;;1.40;;
47353;SDS011;50657;48.830;2.282;2023-02-22T05:46:22;1.48;;;1.10;;
47353;SDS011;50657;48.830;2.282;2023-02-22T05:48:50;3.58;;;1.05;;
47353;SDS011;50657;48.830;2.282;2023-02-22T05:51:17;1.30;;;1.20;;
47353;SDS011;50657;48.830;2.282;2023-02-22T05:53:44;3.20;;;0.98;;
47353;SDS011;50657;48.830;2.282;2023-02-22T05:56:11;1.33;;;1.20;;
47353;SDS011;50657;48.830;2.282;2023-02-22T05:58:40;2.83;;;0.88;;
47353;SDS011;50657;48.830;2.282;2023-02-22T06:01:09;3.13;;;1.08;;
47353;SDS011;50657;48.830;2.282;2023-02-22T06:03:36;0.90;;;0.88;;
47353;SDS011;50657;48.830;2.282;2023-02-22T06:06:05;2.38;;;1.23;;
47353;SDS011;50657;48.830;2.282;2023-02-22T06:08:32;2.00;;;1.48;;
47353;SDS011;50657;48.830;2.282;2023-02-22T06:10:59;1.30;;;1.15;;
47353;SDS011;50657;48.830;2.282;2023-02-22T06:13:29;1.10;;;0.98;;
47353;SDS011;50657;48.830;2.282;2023-02-22T06:15:57;3.60;;;1.38;;
47353;SDS011;50657;48.830;2.282;2023-02-22T06:18:24;2.03;;;1.45;;
47353;SDS011;50657;48.830;2.282;2023-02-22T06:20:54;2.03;;;1.52;;
47353;SDS011;50657;48.830;2.282;2023-02-22T06:23:23;2.78;;;1.35;;
47353;SDS011;50657;48.830;2.282;2023-02-22T06:25:50;1.83;;;1.52;;
47353;SDS011;50657;48.830;2.282;2023-02-22T06:28:17;1.45;;;1.35;;
47353;SDS011;50657;48.830;2.282;2023-02-22T06:30:44;2.35;;;1.00;;
47353;SDS011;50657;48.830;2.282;2023-02-22T06:33:11;8.15;;;1.40;;
47353;SDS011;50657;48.830;2.282;2023-02-22T06:35:39;5.97;;;5.38;;
47353;SDS011;50657;48.830;2.282;2023-02-22T06:38:06;8.35;;;6.50;;
47353;SDS011;50657;48.830;2.282;2023-02-22T06:40:34;9.45;;;7.05;;
47353;SDS011;50657;48.830;2.282;2023-02-22T06:43:01;9.00;;;7.72;;
47353;SDS011;50657;48.830;2.282;2023-02-22T06:45:28;10.65;;;8.52;;
47353;SDS011;50657;48.830;2.282;2023-02-22T06:47:56;12.27;;;7.68;;
47353;SDS011;50657;48.830;2.282;2023-02-22T06:50:24;11.40;;;7.65;;
47353;SDS011;50657;48.830;2.282;2023-02-22T06:52:53;9.02;;;7.45;;
47353;SDS011;50657;48.830;2.282;2023-02-22T06:55:21;15.50;;;7.93;;
47353;SDS011;50657;48.830;2.282;2023-02-22T06:57:51;17.92;;;10.15;;
47353;SDS011;50657;48.830;2.282;2023-02-22T07:00:19;12.27;;;8.55;;
47353;SDS011;50657;48.830;2.282;2023-02-22T07:02:49;11.70;;;7.97;;
47353;SDS011;50657;48.830;2.282;2023-02-22T07:05:17;9.85;;;8.55;;
47353;SDS011;50657;48.830;2.282;2023-02-22T07:07:46;13.82;;;8.55;;
47353;SDS011;50657;48.830;2.282;2023-02-22T07:10:15;11.57;;;7.90;;
47353;SDS011;50657;48.830;2.282;2023-02-22T07:12:45;11.43;;;7.55;;
47353;SDS011;50657;48.830;2.282;2023-02-22T07:15:16;10.48;;;7.35;;
47353;SDS011;50657;48.830;2.282;2023-02-22T07:17:45;11.35;;;7.85;;
47353;SDS011;50657;48.830;2.282;2023-02-22T07:20:12;13.15;;;9.25;;
47353;SDS011;50657;48.830;2.282;2023-02-22T07:22:39;12.18;;;9.00;;
47353;SDS011;50657;48.830;2.282;2023-02-22T07:25:07;12.43;;;9.35;;
47353;SDS011;50657;48.830;2.282;2023-02-22T07:27:37;10.77;;;8.23;;
47353;SDS011;50657;48.830;2.282;2023-02-22T07:30:06;11.05;;;9.75;;
47353;SDS011;50657;48.830;2.282;2023-02-22T07:32:35;12.07;;;9.27;;
47353;SDS011;50657;48.830;2.282;2023-02-22T07:35:02;20.15;;;10.30;;
47353;SDS011;50657;48.830;2.282;2023-02-22T07:37:30;12.63;;;10.13;;
47353;SDS011;50657;48.830;2.282;2023-02-22T07:39:57;13.80;;;10.07;;
47353;SDS011;50657;48.830;2.282;2023-02-22T07:42:24;15.65;;;11.48;;
47353;SDS011;50657;48.830;2.282;2023-02-22T07:44:51;11.50;;;9.75;;
47353;SDS011;50657;48.830;2.282;2023-02-22T07:47:18;15.30;;;10.68;;
47353;SDS011;50657;48.830;2.282;2023-02-22T07:49:47;15.70;;;11.65;;
47353;SDS011;50657;48.830;2.282;2023-02-22T07:52:14;16.80;;;10.00;;
47353;SDS011;50657;48.830;2.282;2023-02-22T07:54:44;24.75;;;11.63;;
47353;SDS011;50657;48.830;2.282;2023-02-22T07:57:11;19.90;;;10.98;;
47353;SDS011;50657;48.830;2.282;2023-02-22T07:59:38;11.85;;;9.75;;
47353;SDS011;50657;48.830;2.282;2023-02-22T08:02:08;16.33;;;10.93;;
47353;SDS011;50657;48.830;2.282;2023-02-22T08:04:40;20.17;;;10.65;;
47353;SDS011;50657;48.830;2.282;2023-02-22T08:07:08;14.50;;;11.82;;
47353;SDS011;50657;48.830;2.282;2023-02-22T08:09:35;16.73;;;10.90;;
47353;SDS011;50657;48.830;2.282;2023-02-22T08:12:02;14.75;;;12.02;;
47353;SDS011;50657;48.830;2.282;2023-02-22T08:14:30;13.93;;;12.25;;
47353;SDS011;50657;48.830;2.282;2023-02-22T08:16:57;14.48;;;11.43;;
47353;SDS011;50657;48.830;2.282;2023-02-22T08:19:24;21.15;;;13.10;;
47353;SDS011;50657;48.830;2.282;2023-02-22T08:21:51;15.57;;;12.35;;
47353;SDS011;50657;48.830;2.282;2023-02-22T08:24:19;17.95;;;13.27;;
47353;SDS011;50657;48.830;2.282;2023-02-22T08:26:47;16.85;;;13.05;;
47353;SDS011;50657;48.830;2.282;2023-02-22T08:29:14;21.27;;;13.57;;
47353;SDS011;50657;48.830;2.282;2023-02-22T08:31:41;17.70;;;13.60;;
47353;SDS011;50657;48.830;2.282;2023-02-22T08:34:08;19.33;;;12.25;;
47353;SDS011;50657;48.830;2.282;2023-02-22T08:36:35;22.60;;;13.80;;
47353;SDS011;50657;48.830;2.282;2023-02-22T08:39:06;19.23;;;15.05;;
47353;SDS011;50657;48.830;2.282;2023-02-22T08:41:34;17.05;;;12.80;;
47353;SDS011;50657;48.830;2.282;2023-02-22T08:44:02;18.60;;;14.10;;
47353;SDS011;50657;48.830;2.282;2023-02-22T08:46:29;23.65;;;16.83;;
47353;SDS011;50657;48.830;2.282;2023-02-22T08:48:57;21.60;;;16.10;;
47353;SDS011;50657;48.830;2.282;2023-02-22T08:51:24;20.90;;;15.43;;
47353;SDS011;50657;48.830;2.282;2023-02-22T08:53:51;19.40;;;12.98;;
47353;SDS011;50657;48.830;2.282;2023-02-22T08:56:19;15.15;;;10.90;;
47353;SDS011;50657;48.830;2.282;2023-02-22T08:58:48;15.85;;;10.15;;
47353;SDS011;50657;48.830;2.282;2023-02-22T09:01:15;12.95;;;10.30;;
47353;SDS011;50657;48.830;2.282;2023-02-22T09:03:45;16.52;;;9.35;;
47353;SDS011;50657;48.830;2.282;2023-02-22T09:06:14;11.50;;;10.07;;
47353;SDS011;50657;48.830;2.282;2023-02-22T09:08:42;10.38;;;7.78;;
47353;SDS011;50657;48.830;2.282;2023-02-22T09:11:09;9.38;;;8.38;;
47353;SDS011;50657;48.830;2.282;2023-02-22T09:13:36;13.38;;;8.77;;
47353;SDS011;50657;48.830;2.282;2023-02-22T09:16:04;11.20;;;7.75;;
47353;SDS011;50657;48.830;2.282;2023-02-22T09:18:31;9.43;;;7.05;;
47353;SDS011;50657;48.830;2.282;2023-02-22T09:20:59;40.15;;;8.82;;
47353;SDS011;50657;48.830;2.282;2023-02-22T09:23:26;10.77;;;7.72;;
47353;SDS011;50657;48.830;2.282;2023-02-22T09:25:54;8.18;;;7.28;;
47353;SDS011;50657;48.830;2.282;2023-02-22T09:28:21;10.23;;;7.00;;
47353;SDS011;50657;48.830;2.282;2023-02-22T09:30:49;7.82;;;6.45;;
47353;SDS011;50657;48.830;2.282;2023-02-22T09:33:17;9.63;;;7.70;;
47353;SDS011;50657;48.830;2.282;2023-02-22T09:35:46;7.88;;;7.03;;
47353;SDS011;50657;48.830;2.282;2023-02-22T09:38:15;10.75;;;8.25;;
47353;SDS011;50657;48.830;2.282;2023-02-22T09:40:45;10.35;;;6.97;;
47353;SDS011;50657;48.830;2.282;2023-02-22T09:43:17;11.55;;;8.55;;
47353;SDS011;50657;48.830;2.282;2023-02-22T09:45:56;8.13;;;6.82;;
47353;SDS011;50657;48.830;2.282;2023-02-22T09:48:39;10.77;;;9.23;;
47353;SDS011;50657;48.830;2.282;2023-02-22T09:51:28;11.23;;;7.18;;
47353;SDS011;50657;48.830;2.282;2023-02-22T09:54:02;8.65;;;6.88;;
47353;SDS011;50657;48.830;2.282;2023-02-22T09:56:32;14.27;;;6.90;;
47353;SDS011;50657;48.830;2.282;2023-02-22T09:59:00;8.15;;;7.28;;
47353;SDS011;50657;48.830;2.282;2023-02-22T10:01:31;7.88;;;7.03;;
47353;SDS011;50657;48.830;2.282;2023-02-22T10:04:08;9.85;;;7.65;;
47353;SDS011;50657;48.830;2.282;2023-02-22T10:06:43;9.23;;;6.68;;
47353;SDS011;50657;48.830;2.282;2023-02-22T10:09:26;6.95;;;6.30;;
47353;SDS011;50657;48.830;2.282;2023-02-22T10:11:55;7.25;;;6.38;;
47353;SDS011;50657;48.830;2.282;2023-02-22T10:14:30;8.23;;;6.05;;
47353;SDS011;50657;48.830;2.282;2023-02-22T10:17:10;8.27;;;6.97;;
47353;SDS011;50657;48.830;2.282;2023-02-22T10:19:52;8.88;;;6.95;;
47353;SDS011;50657;48.830;2.282;2023-02-22T10:22:34;9.27;;;7.30;;
47353;SDS011;50657;48.830;2.282;2023-02-22T10:25:10;7.45;;;6.65;;
47353;SDS011;50657;48.830;2.282;2023-02-22T10:27:43;10.40;;;8.15;;
47353;SDS011;50657;48.830;2.282;2023-02-22T10:30:15;19.85;;;7.85;;
47353;SDS011;50657;48.830;2.282;2023-02-22T10:32:47;11.30;;;6.88;;
47353;SDS011;50657;48.830;2.282;2023-02-22T10:35:21;19.27;;;7.05;;
47353;SDS011;50657;48.830;2.282;2023-02-22T10:37:52;15.15;;;6.30;;
47353;SDS011;50657;48.830;2.282;2023-02-22T10:40:23;14.77;;;5.22;;
47353;SDS011;50657;48.830;2.282;2023-02-22T10:42:57;9.65;;;4.72;;
47353;SDS011;50657;48.830;2.282;2023-02-22T10:45:27;12.10;;;5.63;;
47353;SDS011;50657;48.830;2.282;2023-02-22T10:47:57;13.05;;;6.47;;
47353;SDS011;50657;48.830;2.282;2023-02-22T10:50:29;9.77;;;5.00;;
47353;SDS011;50657;48.830;2.282;2023-02-22T10:52:59;8.45;;;6.88;;
47353;SDS011;50657;48.830;2.282;2023-02-22T10:55:26;7.10;;;5.30;;
47353;SDS011;50657;48.830;2.282;2023-02-22T10:57:58;9.35;;;5.47;;
47353;SDS011;50657;48.830;2.282;2023-02-22T11:00:28;13.65;;;6.32;;
47353;SDS011;50657;48.830;2.282;2023-02-22T11:02:57;6.53;;;5.30;;
47353;SDS011;50657;48.830;2.282;2023-02-22T11:05:27;6.80;;;5.18;;
47353;SDS011;50657;48.830;2.282;2023-02-22T11:08:12;10.00;;;5.47;;
47353;SDS011;50657;48.830;2.282;2023-02-22T11:10:49;9.38;;;5.63;;
47353;SDS011;50657;48.830;2.282;2023-02-22T11:13:18;6.88;;;5.72;;
47353;SDS011;50657;48.830;2.282;2023-02-22T11:15:51;6.10;;;5.50;;
47353;SDS011;50657;48.830;2.282;2023-02-22T11:18:21;6.32;;;5.88;;
47353;SDS011;50657;48.830;2.282;2023-02-22T11:21:03;6.55;;;5.75;;
47353;SDS011;50657;48.830;2.282;2023-02-22T11:23:34;7.20;;;5.82;;
47353;SDS011;50657;48.830;2.282;2023-02-22T11:26:05;5.97;;;5.40;;
47353;SDS011;50657;48.830;2.282;2023-02-22T11:28:34;6.90;;;6.03;;
47353;SDS011;50657;48.830;2.282;2023-02-22T11:31:09;6.32;;;5.70;;
47353;SDS011;50657;48.830;2.282;2023-02-22T11:33:45;6.30;;;5.68;;
47353;SDS011;50657;48.830;2.282;2023-02-22T11:36:29;9.13;;;5.30;;
47353;SDS011;50657;48.830;2.282;2023-02-22T11:39:02;6.18;;;4.95;;
47353;SDS011;50657;48.830;2.282;2023-02-22T11:41:35;6.93;;;6.10;;
47353;SDS011;50657;48.830;2.282;2023-02-22T11:44:13;5.75;;;5.18;;
47353;SDS011;50657;48.830;2.282;2023-02-22T11:46:47;7.13;;;6.45;;
47353;SDS011;50657;48.830;2.282;2023-02-22T11:49:16;5.15;;;4.70;;
47353;SDS011;50657;48.830;2.282;2023-02-22T11:51:49;9.77;;;5.90;;
47353;SDS011;50657;48.830;2.282;2023-02-22T11:54:44;8.77;;;6.10;;
47353;SDS011;50657;48.830;2.282;2023-02-22T11:57:35;6.72;;;5.68;;
47353;SDS011;50657;48.830;2.282;2023-02-22T12:00:13;6.50;;;5.90;;
47353;SDS011;50657;48.830;2.282;2023-02-22T12:02:53;9.18;;;7.07;;
47353;SDS011;50657;48.830;2.282;2023-02-22T12:05:52;6.90;;;6.13;;
47353;SDS011;50657;48.830;2.282;2023-02-22T12:08:38;7.15;;;5.72;;
47353;SDS011;50657;48.830;2.282;2023-02-22T12:11:16;9.30;;;6.38;;
47353;SDS011;50657;48.830;2.282;2023-02-22T12:13:53;7.68;;;5.22;;
47353;SDS011;50657;48.830;2.282;2023-02-22T12:16:34;9.00;;;6.53;;
47353;SDS011;50657;48.830;2.282;2023-02-22T12:19:14;6.50;;;5.40;;
47353;SDS011;50657;48.830;2.282;2023-02-22T12:21:49;6.70;;;5.90;;
47353;SDS011;50657;48.830;2.282;2023-02-22T12:24:23;6.72;;;5.90;;
47353;SDS011;50657;48.830;2.282;2023-02-22T12:26:56;8.55;;;6.90;;
47353;SDS011;50657;48.830;2.282;2023-02-22T12:29:29;7.10;;;6.22;;
47353;SDS011;50657;48.830;2.282;2023-02-22T12:32:03;6.90;;;6.05;;
47353;SDS011;50657;48.830;2.282;2023-02-22T12:34:33;6.18;;;5.32;;
47353;SDS011;50657;48.830;2.282;2023-02-22T12:37:10;9.73;;;6.32;;
47353;SDS011;50657;48.830;2.282;2023-02-22T12:42:16;7.50;;;5.90;;
47353;SDS011;50657;48.830;2.282;2023-02-22T12:44:50;8.82;;;6.40;;
47353;SDS011;50657;48.830;2.282;2023-02-22T12:47:22;7.47;;;5.63;;
47353;SDS011;50657;48.830;2.282;2023-02-22T12:49:56;8.30;;;6.28;;
47353;SDS011;50657;48.830;2.282;2023-02-22T12:52:33;6.47;;;5.65;;
47353;SDS011;50657;48.830;2.282;2023-02-22T12:55:12;6.80;;;5.82;;
47353;SDS011;50657;48.830;2.282;2023-02-22T12:57:46;6.75;;;6.10;;
47353;SDS011;50657;48.830;2.282;2023-02-22T13:00:18;9.38;;;5.93;;
47353;SDS011;50657;48.830;2.282;2023-02-22T13:02:56;5.75;;;5.18;;
47353;SDS011;50657;48.830;2.282;2023-02-22T13:05:25;7.82;;;6.22;;
47353;SDS011;50657;48.830;2.282;2023-02-22T13:08:01;7.05;;;5.55;;
47353;SDS011;50657;48.830;2.282;2023-02-22T13:10:51;8.25;;;6.38;;
47353;SDS011;50657;48.830;2.282;2023-02-22T13:13:32;7.18;;;6.25;;
47353;SDS011;50657;48.830;2.282;2023-02-22T13:16:08;7.07;;;6.38;;
47353;SDS011;50657;48.830;2.282;2023-02-22T13:21:15;6.13;;;5.40;;
47353;SDS011;50657;48.830;2.282;2023-02-22T13:23:47;6.05;;;5.40;;
47353;SDS011;50657;48.830;2.282;2023-02-22T13:26:22;7.28;;;5.80;;
47353;SDS011;50657;48.830;2.282;2023-02-22T13:28:54;7.55;;;6.22;;
47353;SDS011;50657;48.830;2.282;2023-02-22T13:34:19;13.45;;;6.60;;
47353;SDS011;50657;48.830;2.282;2023-02-22T13:36:59;6.38;;;5.40;;
47353;SDS011;50657;48.830;2.282;2023-02-22T13:39:38;6.18;;;5.55;;
47353;SDS011;50657;48.830;2.282;2023-02-22T13:42:23;7.18;;;5.47;;
47353;SDS011;50657;48.830;2.282;2023-02-22T13:48:36;6.18;;;5.45;;
47353;SDS011;50657;48.830;2.282;2023-02-22T13:51:31;9.02;;;4.65;;
47353;SDS011;50657;48.830;2.282;2023-02-22T13:54:11;7.50;;;6.03;;
47353;SDS011;50657;48.830;2.282;2023-02-22T13:56:43;7.70;;;5.82;;
47353;SDS011;50657;48.830;2.282;2023-02-22T13:59:22;8.40;;;6.68;;
47353;SDS011;50657;48.830;2.282;2023-02-22T14:01:52;9.93;;;6.13;;
47353;SDS011;50657;48.830;2.282;2023-02-22T14:04:21;16.40;;;6.68;;
47353;SDS011;50657;48.830;2.282;2023-02-22T14:10:42;9.13;;;6.95;;
47353;SDS011;50657;48.830;2.282;2023-02-22T14:13:12;6.95;;;6.07;;
47353;SDS011;50657;48.830;2.282;2023-02-22T14:18:44;9.63;;;6.72;;
47353;SDS011;50657;48.830;2.282;2023-02-22T14:21:14;9.10;;;6.28;;
47353;SDS011;50657;48.830;2.282;2023-02-22T14:23:44;9.93;;;5.95;;
47353;SDS011;50657;48.830;2.282;2023-02-22T14:26:13;8.35;;;7.50;;
47353;SDS011;50657;48.830;2.282;2023-02-22T14:28:49;11.07;;;7.22;;
47353;SDS011;50657;48.830;2.282;2023-02-22T14:31:22;8.88;;;6.47;;
47353;SDS011;50657;48.830;2.282;2023-02-22T14:33:56;8.65;;;6.25;;
47353;SDS011;50657;48.830;2.282;2023-02-22T14:36:30;8.40;;;6.85;;
47353;SDS011;50657;48.830;2.282;2023-02-22T14:41:57;9.52;;;7.88;;
47353;SDS011;50657;48.830;2.282;2023-02-22T14:44:29;7.25;;;6.05;;
47353;SDS011;50657;48.830;2.282;2023-02-22T14:47:02;9.00;;;7.43;;
47353;SDS011;50657;48.830;2.282;2023-02-22T14:49:32;6.72;;;5.78;;
47353;SDS011;50657;48.830;2.282;2023-02-22T14:52:05;8.38;;;6.57;;
47353;SDS011;50657;48.830;2.282;2023-02-22T14:54:45;8.27;;;6.57;;
47353;SDS011;50657;48.830;2.282;2023-02-22T14:57:19;8.60;;;6.40;;
47353;SDS011;50657;48.830;2.282;2023-02-22T14:59:52;8.15;;;6.28;;
47353;SDS011;50657;48.830;2.282;2023-02-22T15:02:47;8.40;;;6.93;;
47353;SDS011;50657;48.830;2.282;2023-02-22T15:05:17;9.32;;;6.25;;
47353;SDS011;50657;48.830;2.282;2023-02-22T15:07:52;7.03;;;6.00;;
47353;SDS011;50657;48.830;2.282;2023-02-22T15:10:22;6.18;;;5.45;;
47353;SDS011;50657;48.830;2.282;2023-02-22T15:12:53;6.82;;;6.18;;
47353;SDS011;50657;48.830;2.282;2023-02-22T15:15:34;8.32;;;5.97;;
47353;SDS011;50657;48.830;2.282;2023-02-22T15:18:13;7.80;;;6.75;;
47353;SDS011;50657;48.830;2.282;2023-02-22T15:20:46;5.85;;;5.25;;
47353;SDS011;50657;48.830;2.282;2023-02-22T15:23:20;6.80;;;5.97;;
47353;SDS011;50657;48.830;2.282;2023-02-22T15:25:48;7.20;;;6.03;;
47353;SDS011;50657;48.830;2.282;2023-02-22T15:28:16;6.25;;;5.30;;
47353;SDS011;50657;48.830;2.282;2023-02-22T15:30:44;5.80;;;5.20;;
47353;SDS011;50657;48.830;2.282;2023-02-22T15:33:14;6.47;;;4.80;;
47353;SDS011;50657;48.830;2.282;2023-02-22T15:35:52;8.02;;;5.32;;